Nearby METAR Reports

 

EGUW - Wattisham Raf, United Kingdom
Distance from station: SW 12mi, 19km
Updated: 01/06/2020 23:50
Clear
Clear
 Wind from NE
Wind: NE 8 mph , 13 km/h
Temperature: 12°C
Dew Point: 10°C
Humidity: 88%
Barometer: 1022 hPa
Summary: Clear
Visibility: greater than 7 miles , 10 km
2020/06/01 22:50 EGUW 012250Z 04007KT CAVOK 12/10 Q1022 NOSIG RMK BLU BLU
EGUL - Lakenheath Raf, United Kingdom
Distance from station: WNW 29mi, 47km
Updated: 01/06/2020 23:56
Clear
Clear
 Wind from NNE
Wind: NNE 3 mph , 6 km/h
Temperature: 12°C
Dew Point: 10°C
Humidity: 88%
Barometer: 1022.7 hPa
Clouds: Clear
Visibility: 6 miles , 10 km
2020/06/01 22:56 EGUL 012256Z AUTO 02003KT 9999 CLR 12/10 A3020 RMK AO2 SLP230 T01190095 $
 
EGUN - Mildenhall Raf, United Kingdom
Distance from station: WNW 32mi, 51km
Updated: 01/06/2020 23:56
Clear
Clear
 Wind from NNE
Wind: NNE 3 mph , 6 km/h
Temperature: 12°C
Dew Point: 12°C
Humidity: 100%
Barometer: 1022.7 hPa
Clouds: Clear
Visibility: 6 miles , 10 km
2020/06/01 22:56 EGUN 012256Z AUTO 03003KT 9999 CLR 12/12 A3020 RMK AO2 SLP230 T01230123 $
EGSH - Norwich Wea Cntr, United Kingdom
Distance from station: N 32mi, 52km
Updated: 02/06/2020 00:50
Clear
Clear
 Wind from N
Wind: N 3 mph , 6 km/h
Temperature: 11°C
Dew Point: 10°C
Humidity: 94%
Barometer: 1023 hPa
Clouds: Clear
Visibility: 6 miles , 10 km
2020/06/01 23:50 EGSH 012350Z AUTO 35003KT 9999 NCD 11/10 Q1023
 
EGYM - Marham Raf, United Kingdom
Distance from station: NW 39mi, 62km
Updated: 02/06/2020 00:21
Clear
Clear
 Wind from NNW
Wind: NNW 6 mph , 9 km/h
Temperature: 10°C
Wind Chill: 9°C
Dew Point: 9°C
Humidity: 94%
Barometer: 1023 hPa
Summary: Clear
Visibility: greater than 7 miles , 10 km
2020/06/01 23:21 EGYM 012321Z 34005KT CAVOK 10/09 Q1023 NOSIG RMK BLU BLU
EGSC - Cambridge, United Kingdom
Distance from station: W 43mi, 69km
Updated: 01/06/2020 17:50
NOT Current
Clear
Clear
 Wind from E
Wind: E 6 mph , 9 km/h
Temperature: 24°C
Dew Point: 9°C
Humidity: 39%
Barometer: 1021 hPa
Summary: Clear
Visibility: greater than 7 miles , 10 km
2020/06/01 16:50 EGSC 011650Z 08005KT CAVOK 24/09 Q1021
 
EGSS - Stansted Airport, United Kingdom
Distance from station: WSW 47mi, 76km
Updated: 02/06/2020 00:50
Clear
Clear
 Wind from N
Wind: N 3 mph , 6 km/h
Temperature: 11°C
Dew Point: 8°C
Humidity: 82%
Barometer: 1023 hPa
Clouds: Clear
Visibility: 6 miles , 10 km
2020/06/01 23:50 EGSS 012350Z AUTO 01003KT 9999 NCD 11/08 Q1023
EGMC - Southend-On-Sea, United Kingdom
Distance from station: SSW 50mi, 80km
Updated: 02/06/2020 00:50
Clear
Clear
 Wind from NNE
Wind: NNE 3 mph , 6 km/h
Temperature: 11°C
Dew Point: 9°C
Humidity: 88%
Barometer: 1022 hPa
Summary: Clear
Visibility: greater than 7 miles , 10 km
2020/06/01 23:50 EGMC 012350Z 02003KT CAVOK 11/09 Q1022